Dr Bravo — 3ECC6 — position and weather

sailwx.info

Track history (hours):
 
Tides and Currents Weather Stations Pressure Air Temp Water Temp Dewpoint Dewpoint Depression Visibility Wind Speed Wind Dir Waves Ship Positions

Dr Bravo

Last reported at 2018-Apr-17 12:34 UTC. Time now 2018-Jun-25 17:51 UTC.
Position N 22°18' E 119°50'.
Warning: this ship's position is months out of date.

Length 225 m; draft 8.2 m.

Type: Cargo ship. MMSI: 371314000.

Date/timePositionNaut miles runAvg speedWind from/ knotsBaromVisibWave heightAir tempDewpointWater temp
2018-Apr-17 12:34N 22°18' E 119°50'211.1
2018-Apr-17 12:24N 22°20' E 119°50'811.4
2018-Apr-17 11:40N 22°29' E 119°50'211.7
2018-Apr-17 11:27N 22°31' E 119°51'511.5
2018-Apr-17 11:00N 22°36' E 119°51'611.2
2018-Apr-17 10:30N 22°42' E 119°51'511.0
2018-Apr-17 10:00N 22°47' E 119°52'611.2
2018-Apr-17 09:27N 22°54' E 119°52'611.8
2018-Apr-17 08:59N 22°59' E 119°52'612.2
2018-Apr-17 08:28N 23°05' E 119°53'612.4
2018-Apr-17 07:58N 23°12' E 119°53'613.0
2018-Apr-17 07:30N 23°18' E 119°54'613.1
2018-Apr-17 07:00N 23°24' E 119°54'813.1
2018-Apr-17 06:24N 23°32' E 119°55'512.5
2018-Apr-17 06:00N 23°37' E 119°55'10111.0
2018-Apr-16 20:54N 25°06' E 120°45'1010.1
2018-Apr-16 19:54N 25°15' E 120°51'4 9.9
2018-Apr-16 19:30N 25°18' E 120°54'5 9.7
2018-Apr-16 18:59N 25°22' E 120°57'5 9.8
2018-Apr-16 18:30N 25°26' E 121°00'510.1
2018-Apr-16 18:00N 25°30' E 121°03'510.5
2018-Apr-16 17:30N 25°35' E 121°07'37011.2
2018-Apr-15 08:39N 31°13' E 123°57'  
2018-Apr-08 16:57N 32°04' E 123°47'  
Track history (hours):
 
Tides and Currents Weather Stations Pressure Air Temp Water Temp Dewpoint Dewpoint Depression Visibility Wind Speed Wind Dir Waves Ship Positions

Dr Bravo

Last reported at 2018-Apr-17 12:34 UTC. Time now 2018-Jun-25 17:51 UTC.
Position N 22°18' E 119°50'.
Warning: this ship's position is months out of date.

Length 225 m; draft 8.2 m.

Type: Cargo ship. MMSI: 371314000.

Date/timePositionNaut miles runAvg speedWind from/ knotsBaromVisibWave heightAir tempDewpointWater temp
2018-Apr-17 12:34N 22°18' E 119°50'211.1
2018-Apr-17 12:24N 22°20' E 119°50'811.4
2018-Apr-17 11:40N 22°29' E 119°50'211.7
2018-Apr-17 11:27N 22°31' E 119°51'511.5
2018-Apr-17 11:00N 22°36' E 119°51'611.2
2018-Apr-17 10:30N 22°42' E 119°51'511.0
2018-Apr-17 10:00N 22°47' E 119°52'611.2
2018-Apr-17 09:27N 22°54' E 119°52'611.8
2018-Apr-17 08:59N 22°59' E 119°52'612.2
2018-Apr-17 08:28N 23°05' E 119°53'612.4
2018-Apr-17 07:58N 23°12' E 119°53'613.0
2018-Apr-17 07:30N 23°18' E 119°54'613.1
2018-Apr-17 07:00N 23°24' E 119°54'813.1
2018-Apr-17 06:24N 23°32' E 119°55'512.5
2018-Apr-17 06:00N 23°37' E 119°55'10111.0
2018-Apr-16 20:54N 25°06' E 120°45'1010.1
2018-Apr-16 19:54N 25°15' E 120°51'4 9.9
2018-Apr-16 19:30N 25°18' E 120°54'5 9.7
2018-Apr-16 18:59N 25°22' E 120°57'5 9.8
2018-Apr-16 18:30N 25°26' E 121°00'510.1
2018-Apr-16 18:00N 25°30' E 121°03'510.5
2018-Apr-16 17:30N 25°35' E 121°07'37011.2
2018-Apr-15 08:39N 31°13' E 123°57'  
2018-Apr-08 16:57N 32°04' E 123°47'  

Dump ship's entire track history